»·PEaware :: WAT175 KLAS-KSAN

WAT175 :: KLAS-KSAN

FLIGHT INFORMATION

Flight Status: Arrived
Operator:
Walker Air Transport
More flights by this operator :: More flights under this callsign
Pilot: Michael C. (27126)
Aircraft: BOEING 737-800
(B738)
More flights by this aircraft type
Origin: KLAS McCarran Intl
United States
Destination: KSAN San Diego Intl-Lindbergh
United States
More flights between these airports :: More routes between these airports
Route: +BOACH8 LVELL LUCKI1
File this flight plan on PilotEdge
Remarks: RMK / SIMBRIEF
Altitude:
(Current/Filed)
30,000ft
Speed:
(Current/Filed)
433kts
Departed: 21-May-20 07:58 PM
Arrived: 21-May-20 08:42 PM
Distance/Time
Traveled:
225nm/0:44
Distance/Time
To Go:
Arrived

Flight Plot

Page will automatically refresh every two minutes.

Flight plan parsing failed; only flown route is shown


Map Options




Map Legend


Flown Route
Filed Route
Departure Airport
Arrival Airport
Navaid (VOR, NDB)
Fix

Horizontal Profiles

Position Reports

Time Latitude Longitude Heading Altitude Ground
Speed
21-May-20 19:30 36.080311 -115.147276 61 2121ft 0kts
21-May-20 19:31 36.080311 -115.147276 61 2121ft 0kts
21-May-20 19:32 36.080311 -115.147276 61 2121ft 0kts
21-May-20 19:33 36.080311 -115.147276 61 2121ft 0kts
21-May-20 19:34 36.080311 -115.147276 61 2121ft 0kts
21-May-20 19:35 36.080311 -115.147276 61 2121ft 0kts
21-May-20 19:36 36.080311 -115.147276 61 2121ft 0kts
21-May-20 19:37 36.080311 -115.147276 61 2121ft 0kts
21-May-20 19:38 36.080311 -115.147276 61 2121ft 0kts
21-May-20 19:39 36.080311 -115.147276 61 2121ft 0kts
21-May-20 19:40 36.080311 -115.147276 61 2121ft 0kts
21-May-20 19:41 36.080311 -115.147276 61 2121ft 0kts
21-May-20 19:42 36.080311 -115.147276 61 2121ft 0kts
21-May-20 19:43 36.080311 -115.147276 61 2121ft 0kts
21-May-20 19:44 36.080311 -115.147276 61 2121ft 0kts
21-May-20 19:45 36.080287 -115.147355 94 2121ft 1kts
21-May-20 19:46 36.080406 -115.148038 132 2121ft 2kts
21-May-20 19:47 36.080620 -115.148221 156 2121ft 0kts
21-May-20 19:48 36.080620 -115.148221 156 2121ft 0kts
21-May-20 19:49 36.079502 -115.147633 154 2121ft 0kts
21-May-20 19:50 36.079195 -115.147458 155 2121ft 8kts
21-May-20 19:51 36.078371 -115.144976 95 2121ft 11kts
21-May-20 19:52 36.078263 -115.139471 90 2121ft 19kts
21-May-20 19:53 36.078295 -115.133154 88 2121ft 17kts
21-May-20 19:54 36.078285 -115.127412 91 2121ft 18kts
21-May-20 19:55 36.077683 -115.121736 129 2121ft 13kts
21-May-20 19:56 36.077507 -115.121510 141 2121ft 0kts
21-May-20 19:57 36.076344 -115.128587 270 2121ft 103kts
21-May-20 19:59 36.077010 -115.191048 269 3596ft 229kts
21-May-20 20:00 36.046477 -115.265186 210 6521ft 276kts
21-May-20 20:01 35.972155 -115.299157 194 9654ft 303kts
21-May-20 20:02 35.878180 -115.312476 186 11775ft 355kts
21-May-20 20:03 35.777039 -115.306034 176 14651ft 370kts
21-May-20 20:04 35.672358 -115.294997 182 17187ft 383kts
21-May-20 20:05 35.563339 -115.299162 186 19024ft 400kts
21-May-20 20:06 35.450721 -115.303738 186 20129ft 414kts
21-May-20 20:07 35.336725 -115.308240 186 21318ft 423kts
21-May-20 20:08 35.212078 -115.313199 187 22649ft 447kts
21-May-20 20:09 35.088168 -115.318049 187 23940ft 457kts
21-May-20 20:10 34.957322 -115.323153 187 25275ft 460kts
21-May-20 20:11 34.829654 -115.331731 194 26582ft 458kts
21-May-20 20:12 34.709478 -115.368022 202 27852ft 461kts
21-May-20 20:13 34.584347 -115.418626 205 29193ft 463kts
21-May-20 20:14 34.462053 -115.470963 205 29977ft 470kts
21-May-20 20:15 34.341184 -115.527406 212 29981ft 460kts
21-May-20 20:16 34.229038 -115.600729 209 29982ft 464kts
21-May-20 20:17 34.109910 -115.660881 207 29982ft 465kts
21-May-20 20:17 34.008896 -115.709533 207 29925ft 466kts
21-May-20 20:19 33.869094 -115.776451 207 29807ft 445kts
21-May-20 20:20 33.761296 -115.829374 208 29809ft 413kts
21-May-20 20:20 33.671237 -115.871668 207 29259ft 413kts
21-May-20 20:21 33.565886 -115.921231 210 26920ft 400kts
21-May-20 20:22 33.486133 -116.003199 234 25812ft 373kts
21-May-20 20:23 33.424041 -116.102972 238 24377ft 369kts
21-May-20 20:24 33.365499 -116.202536 238 22149ft 362kts
21-May-20 20:25 33.288494 -116.278987 210 19941ft 366kts
21-May-20 20:26 33.197819 -116.332019 209 17865ft 358kts
21-May-20 20:27 33.110454 -116.383052 208 16049ft 345kts
21-May-20 20:28 33.025281 -116.432778 207 14073ft 337kts
21-May-20 20:29 32.951446 -116.498652 221 12234ft 327kts
21-May-20 20:30 32.883381 -116.567534 221 10461ft 313kts
21-May-20 20:31 32.822172 -116.629136 221 9672ft 272kts
21-May-20 20:32 32.767222 -116.692483 237 8227ft 273kts
21-May-20 20:33 32.730354 -116.769834 241 6790ft 257kts
21-May-20 20:34 32.699389 -116.842789 250 5358ft 237kts
21-May-20 20:35 32.678284 -116.913935 255 4420ft 231kts
21-May-20 20:36 32.684158 -116.987245 285 3226ft 213kts
21-May-20 20:37 32.699381 -117.049261 285 2348ft 174kts
21-May-20 20:38 32.711664 -117.099452 284 1759ft 147kts
21-May-20 20:39 32.723136 -117.147232 286 743ft 150kts
21-May-20 20:40 32.734204 -117.192544 286 25ft 89kts
21-May-20 20:41 32.734000 -117.199692 203 25ft 12kts
21-May-20 20:42 32.733373 -117.199092 116 25ft 0kts

Navigation Log

Ident Type
Flight plan parsing failed, navigation log unavailable